createdAt,value
2022-09-14T00:01:45.505Z,100878.06
2022-09-14T00:05:47.504Z,100874.78
2022-09-14T00:09:51.730Z,100866.69
2022-09-14T00:13:54.455Z,100869.38
2022-09-14T00:17:56.157Z,100859.81
2022-09-14T00:21:58.961Z,100859.63
2022-09-14T00:26:09.865Z,100860.22
2022-09-14T00:30:11.787Z,100860.63
2022-09-14T00:34:15.922Z,100846.50
2022-09-14T00:38:17.609Z,100844.44
2022-09-14T00:42:19.705Z,100840.91
2022-09-14T00:46:22.430Z,100846.53
2022-09-14T00:50:24.194Z,100828.22
2022-09-14T00:54:26.555Z,100826.16
2022-09-14T00:58:28.495Z,100826.16
2022-09-14T01:02:30.283Z,100819.94
2022-09-14T01:06:48.263Z,100815.78
2022-09-14T01:11:11.819Z,100795.03
2022-09-14T01:15:34.463Z,100789.22
2022-09-14T01:19:56.304Z,100788.59
2022-09-14T01:23:59.541Z,100785.91
2022-09-14T01:28:05.854Z,100781.34
2022-09-14T01:32:18.217Z,100781.34
2022-09-14T01:36:21.736Z,100777.59
2022-09-14T01:40:33.647Z,100770.56
2022-09-14T01:44:39.884Z,100770.97
2022-09-14T01:48:50.925Z,100769.31
2022-09-14T01:53:00.332Z,100762.88
2022-09-14T01:57:14.301Z,100761.22
2022-09-14T02:01:24.931Z,100765.59
2022-09-14T02:05:34.906Z,100766.81
2022-09-14T02:09:36.824Z,100753.56
2022-09-14T02:13:38.904Z,100748.38
2022-09-14T02:17:41.150Z,100750.25
2022-09-14T02:21:42.840Z,100743.56
2022-09-14T02:25:46.426Z,100749.59
2022-09-14T02:29:48.954Z,100747.75
2022-09-14T02:34:11.230Z,100736.34
2022-09-14T02:38:22.336Z,100734.47
2022-09-14T02:42:42.020Z,100729.50
2022-09-14T02:46:43.660Z,100721.19
2022-09-14T02:51:05.149Z,100710.41
2022-09-14T02:55:14.831Z,100709.59
2022-09-14T02:59:18.649Z,100710.41
2022-09-14T03:03:21.478Z,100695.06
2022-09-14T03:07:23.210Z,100696.34
2022-09-14T03:11:25.014Z,100691.56
2022-09-14T03:15:27.621Z,100692.16
2022-09-14T03:19:29.305Z,100692.16
2022-09-14T03:23:31.005Z,100691.34
2022-09-14T03:27:32.668Z,100687.00
2022-09-14T03:31:34.656Z,100685.34
2022-09-14T03:35:36.433Z,100675.78
2022-09-14T03:39:38.103Z,100674.31
2022-09-14T03:43:40.339Z,100669.97
2022-09-14T03:47:43.146Z,100666.03
2022-09-14T03:51:44.811Z,100659.00
2022-09-14T03:55:46.465Z,100649.88
2022-09-14T03:59:48.121Z,100651.53
2022-09-14T04:03:50.907Z,100650.69
2022-09-14T04:07:52.546Z,100660.84
2022-09-14T04:11:54.207Z,100652.75
2022-09-14T04:15:57.454Z,100661.84
2022-09-14T04:19:59.208Z,100660.84
2022-09-14T04:24:14.722Z,100665.19
2022-09-14T04:28:20.658Z,100659.41
2022-09-14T04:32:22.670Z,100659.41
2022-09-14T04:36:29.468Z,100657.53
2022-09-14T04:40:31.463Z,100654.63
2022-09-14T04:44:33.203Z,100660.84
2022-09-14T04:48:35.738Z,100653.59
2022-09-14T04:52:37.519Z,100650.69
2022-09-14T04:56:39.396Z,100649.88
2022-09-14T05:00:41.095Z,100647.19
2022-09-14T05:04:42.767Z,100654.22
2022-09-14T05:08:45.647Z,100645.31
2022-09-14T05:12:47.331Z,100643.44
2022-09-14T05:16:48.983Z,100627.50
2022-09-14T05:20:50.734Z,100635.78
2022-09-14T05:24:52.360Z,100637.84
2022-09-14T05:28:56.736Z,100645.94
2022-09-14T05:32:58.395Z,100640.53
2022-09-14T05:37:00.068Z,100643.25
2022-09-14T05:41:02.206Z,100645.94
2022-09-14T05:45:04.495Z,100637.84
2022-09-14T05:49:06.366Z,100638.25
2022-09-14T05:53:08.056Z,100644.69
2022-09-14T05:57:10.803Z,100633.28
2022-09-14T06:01:16.011Z,100643.03
2022-09-14T06:05:18.132Z,100648.84
2022-09-14T06:09:19.819Z,100644.50
2022-09-14T06:13:23.427Z,100645.53
2022-09-14T06:17:25.345Z,100650.91
2022-09-14T06:21:33.154Z,100655.25
2022-09-14T06:25:34.829Z,100654.44
2022-09-14T06:29:36.546Z,100644.50
2022-09-14T06:33:38.203Z,100637.44
2022-09-14T06:37:39.906Z,100635.16
2022-09-14T06:41:41.616Z,100627.91
2022-09-14T06:46:05.171Z,100622.31
2022-09-14T06:50:07.351Z,100631.22
2022-09-14T06:54:12.093Z,100624.38
2022-09-14T06:58:13.791Z,100626.06
2022-09-14T07:02:15.607Z,100631.00
2022-09-14T07:06:22.719Z,100628.97
2022-09-14T07:10:28.155Z,100623.16
2022-09-14T07:14:32.340Z,100626.06
2022-09-14T07:18:34.406Z,100615.28
2022-09-14T07:22:36.097Z,100629.59
2022-09-14T07:26:40.613Z,100643.47
2022-09-14T07:30:42.328Z,100642.84
2022-09-14T07:34:44.020Z,100647.63
2022-09-14T07:38:52.479Z,100639.53
2022-09-14T07:42:57.591Z,100636.63
2022-09-14T07:46:59.610Z,100645.53
2022-09-14T07:51:05.458Z,100638.94
2022-09-14T07:55:08.524Z,100630.81
2022-09-14T07:59:34.349Z,100624.00
2022-09-14T08:03:36.362Z,100606.38
2022-09-14T08:07:37.980Z,100617.97
2022-09-14T08:11:39.870Z,100603.06
2022-09-14T08:15:41.515Z,100610.09
2022-09-14T08:19:43.248Z,100616.31
2022-09-14T08:23:45.399Z,100599.34
2022-09-14T08:27:47.046Z,100608.03
2022-09-14T08:31:51.763Z,100615.50
2022-09-14T08:35:57.786Z,100610.94
2022-09-14T08:40:00.094Z,100622.31
2022-09-14T08:44:23.280Z,100614.25
2022-09-14T08:48:35.063Z,100614.66
2022-09-14T08:52:59.673Z,100618.19
2022-09-14T08:57:22.912Z,100616.50
2022-09-14T09:01:55.114Z,100616.72
2022-09-14T09:06:16.157Z,100620.06
2022-09-14T09:10:19.027Z,100620.06
2022-09-14T09:14:31.911Z,100617.97
2022-09-14T09:18:44.656Z,100612.16
2022-09-14T09:22:53.549Z,100614.41
2022-09-14T09:26:55.435Z,100613.59
2022-09-14T09:31:10.255Z,100613.75
2022-09-14T09:35:33.723Z,100604.47
2022-09-14T09:39:51.248Z,100603.00
2022-09-14T09:44:06.868Z,100609.63
2022-09-14T09:48:10.694Z,100600.06
2022-09-14T09:52:17.155Z,100602.09
2022-09-14T09:56:22.869Z,100595.47
2022-09-14T10:00:29.732Z,100589.66
2022-09-14T10:04:32.540Z,100591.28
2022-09-14T10:08:41.657Z,100599.19
2022-09-14T10:12:49.162Z,100597.50
2022-09-14T10:16:51.127Z,100601.00
2022-09-14T10:20:52.994Z,100600.56
2022-09-14T10:25:18.033Z,100601.16
2022-09-14T10:29:39.896Z,100590.75
2022-09-14T10:33:42.480Z,100594.66
2022-09-14T10:38:01.866Z,100586.16
2022-09-14T10:42:19.441Z,100588.25
2022-09-14T10:46:28.377Z,100584.50
2022-09-14T10:50:41.320Z,100586.56
2022-09-14T10:54:58.120Z,100580.38
2022-09-14T10:59:35.345Z,100579.97
2022-09-14T11:03:43.980Z,100573.59
2022-09-14T11:07:53.275Z,100588.34
2022-09-14T11:12:14.961Z,100585.44
2022-09-14T11:16:19.587Z,100588.53
2022-09-14T11:20:48.609Z,100579.97
2022-09-14T11:25:14.655Z,100577.06
2022-09-14T11:29:38.996Z,100577.00
2022-09-14T11:33:56.332Z,100573.66
2022-09-14T11:38:07.211Z,100577.19
2022-09-14T11:42:23.497Z,100575.88
2022-09-14T11:46:32.003Z,100581.22
2022-09-14T11:50:35.798Z,100577.19
2022-09-14T11:54:44.612Z,100582.34
2022-09-14T11:58:48.563Z,100574.88
2022-09-14T12:02:59.434Z,100576.47
2022-09-14T12:07:01.236Z,100582.03
2022-09-14T12:11:09.178Z,100576.56
2022-09-14T12:15:28.943Z,100572.03
2022-09-14T12:19:32.008Z,100575.59
2022-09-14T12:23:43.933Z,100567.09
2022-09-14T12:27:48.638Z,100562.13
2022-09-14T12:31:56.364Z,100552.97
2022-09-14T12:36:10.997Z,100560.34
2022-09-14T12:40:22.019Z,100563.16
2022-09-14T12:44:34.439Z,100548.09
2022-09-14T12:48:48.547Z,100556.28
2022-09-14T12:53:01.401Z,100548.44
2022-09-14T12:57:39.742Z,100545.56
2022-09-14T13:02:12.779Z,100545.41
2022-09-14T13:06:16.074Z,100547.59
2022-09-14T13:10:31.741Z,100544.41
2022-09-14T13:14:55.766Z,100542.41
2022-09-14T13:19:03.342Z,100529.13
2022-09-14T13:23:23.035Z,100534.66
2022-09-14T13:27:27.068Z,100524.47
2022-09-14T13:31:39.919Z,100537.31
2022-09-14T13:36:02.845Z,100538.06
2022-09-14T13:40:05.080Z,100534.25
2022-09-14T13:44:06.998Z,100521.38
2022-09-14T13:48:12.429Z,100526.75
2022-09-14T13:53:01.298Z,100513.16
2022-09-14T13:57:18.886Z,100510.13
2022-09-14T14:01:29.072Z,100509.00
2022-09-14T14:05:34.048Z,100510.84
2022-09-14T14:09:56.828Z,100507.31
2022-09-14T14:14:11.286Z,100500.66
2022-09-14T14:18:39.390Z,100494.44
2022-09-14T14:22:55.405Z,100494.06
2022-09-14T14:26:58.021Z,100473.47
2022-09-14T14:31:10.032Z,100470.03
2022-09-14T14:35:22.423Z,100468.75
2022-09-14T14:39:25.512Z,100463.94
2022-09-14T14:43:28.382Z,100462.41
2022-09-14T14:47:30.058Z,100462.41
2022-09-14T14:51:31.707Z,100464.06
2022-09-14T14:55:33.962Z,100461.81
2022-09-14T14:59:35.779Z,100466.38
2022-09-14T15:03:37.641Z,100463.06
2022-09-14T15:07:39.859Z,100465.19
2022-09-14T15:11:41.727Z,100465.56
2022-09-14T15:15:43.523Z,100468.66
2022-09-14T15:19:45.586Z,100454.50
2022-09-14T15:23:48.884Z,100448.94
2022-09-14T15:27:50.672Z,100449.50
2022-09-14T15:31:52.519Z,100455.97
2022-09-14T15:35:55.885Z,100456.53
2022-09-14T15:39:57.529Z,100454.38
2022-09-14T15:43:59.282Z,100452.94
2022-09-14T15:48:01.387Z,100446.34
2022-09-14T15:52:03.405Z,100455.03
2022-09-14T15:56:13.541Z,100453.75
2022-09-14T16:00:15.565Z,100464.34
2022-09-14T16:04:18.719Z,100463.44
2022-09-14T16:08:20.833Z,100468.38
2022-09-14T16:12:22.525Z,100471.75
2022-09-14T16:16:24.515Z,100478.25
2022-09-14T16:20:26.302Z,100475.41
2022-09-14T16:24:28.780Z,100487.84
2022-09-14T16:28:30.387Z,100487.72
2022-09-14T16:32:32.057Z,100495.66
2022-09-14T16:36:36.351Z,100494.34
2022-09-14T16:40:42.248Z,100496.03
2022-09-14T16:44:44.508Z,100498.38
2022-09-14T16:48:47.778Z,100500.94
2022-09-14T16:52:49.490Z,100493.25
2022-09-14T16:56:51.350Z,100502.44
2022-09-14T17:00:53.031Z,100503.50
2022-09-14T17:04:54.758Z,100512.66
2022-09-14T17:09:05.979Z,100518.28
2022-09-14T17:13:08.164Z,100515.78
2022-09-14T17:17:09.866Z,100514.22
2022-09-14T17:21:15.674Z,100509.72
2022-09-14T17:25:17.317Z,100521.81
2022-09-14T17:29:19.522Z,100513.69
2022-09-14T17:33:22.230Z,100520.59
2022-09-14T17:37:23.913Z,100535.63
2022-09-14T17:41:30.542Z,100536.69
2022-09-14T17:45:32.194Z,100530.03
2022-09-14T17:49:33.844Z,100539.66
2022-09-14T17:53:40.058Z,100536.56
2022-09-14T17:57:41.792Z,100542.06
2022-09-14T18:01:43.523Z,100544.81
2022-09-14T18:05:54.347Z,100540.28
2022-09-14T18:09:56.759Z,100550.09
2022-09-14T18:13:58.506Z,100547.22
2022-09-14T18:18:00.228Z,100550.16
2022-09-14T18:22:02.110Z,100551.06
2022-09-14T18:26:05.635Z,100560.03
2022-09-14T18:30:07.975Z,100565.28
2022-09-14T18:34:10.184Z,100566.72
2022-09-14T18:38:12.329Z,100562.81
2022-09-14T18:42:13.964Z,100576.78
2022-09-14T18:46:16.884Z,100576.13
2022-09-14T18:50:19.663Z,100578.22
2022-09-14T18:54:27.306Z,100575.75
2022-09-14T18:58:32.041Z,100584.91
2022-09-14T19:02:33.909Z,100581.38
2022-09-14T19:06:37.090Z,100582.63
2022-09-14T19:10:38.941Z,100586.56
2022-09-14T19:14:40.583Z,100584.09
2022-09-14T19:18:43.486Z,100586.19
2022-09-14T19:22:45.242Z,100587.47
2022-09-14T19:26:49.946Z,100596.56
2022-09-14T19:30:52.040Z,100597.03
2022-09-14T19:34:54.514Z,100599.94
2022-09-14T19:38:58.731Z,100602.03
2022-09-14T19:43:00.463Z,100599.53
2022-09-14T19:47:02.274Z,100598.31
2022-09-14T19:51:19.101Z,100593.56
2022-09-14T19:55:20.788Z,100599.59
2022-09-14T19:59:22.634Z,100594.22
2022-09-14T20:03:24.994Z,100598.38
2022-09-14T20:07:26.836Z,100603.38
2022-09-14T20:11:30.426Z,100603.81
2022-09-14T20:15:32.170Z,100604.63
2022-09-14T20:19:36.002Z,100611.88
2022-09-14T20:23:52.652Z,100608.19
2022-09-14T20:28:02.921Z,100594.69
2022-09-14T20:32:05.582Z,100598.88
2022-09-14T20:36:10.319Z,100606.75
2022-09-14T20:40:12.473Z,100607.59
2022-09-14T20:44:14.871Z,100600.78
2022-09-14T20:48:16.642Z,100603.47
2022-09-14T20:52:19.477Z,100603.25
2022-09-14T20:56:23.537Z,100597.47
2022-09-14T21:00:25.219Z,100593.13
2022-09-14T21:04:27.830Z,100602.66
2022-09-14T21:08:31.110Z,100610.75
2022-09-14T21:12:32.802Z,100616.72
2022-09-14T21:16:43.127Z,100616.75
2022-09-14T21:20:44.848Z,100630.00
2022-09-14T21:24:46.479Z,100624.81
2022-09-14T21:28:48.355Z,100619.00
2022-09-14T21:32:50.522Z,100623.78
2022-09-14T21:36:52.912Z,100620.47
2022-09-14T21:40:54.570Z,100626.28
2022-09-14T21:44:56.261Z,100620.44
2022-09-14T21:48:57.957Z,100618.38
2022-09-14T21:52:59.661Z,100630.41
2022-09-14T21:57:01.356Z,100634.56
2022-09-14T22:01:03.305Z,100635.38
2022-09-14T22:05:05.955Z,100635.38
2022-09-14T22:09:07.814Z,100629.16
2022-09-14T22:13:09.519Z,100639.53
2022-09-14T22:17:11.205Z,100642.41
2022-09-14T22:21:12.955Z,100643.25
2022-09-14T22:25:14.848Z,100636.63
2022-09-14T22:29:17.443Z,100642.22
2022-09-14T22:33:21.220Z,100644.94
2022-09-14T22:37:22.977Z,100648.03
2022-09-14T22:41:26.143Z,100643.88
2022-09-14T22:45:27.822Z,100650.72
2022-09-14T22:49:29.479Z,100655.50
2022-09-14T22:53:31.756Z,100649.72
2022-09-14T22:57:33.412Z,100657.16
2022-09-14T23:01:38.375Z,100656.56
2022-09-14T23:05:47.825Z,100658.00
2022-09-14T23:09:49.489Z,100655.72
2022-09-14T23:13:51.114Z,100658.19
2022-09-14T23:17:52.808Z,100661.72
2022-09-14T23:21:54.772Z,100666.88
2022-09-14T23:25:56.414Z,100670.84
2022-09-14T23:29:58.683Z,100671.44
2022-09-14T23:34:02.001Z,100667.09
2022-09-14T23:38:03.670Z,100658.16
2022-09-14T23:42:06.122Z,100661.69
2022-09-14T23:46:07.961Z,100655.47
2022-09-14T23:50:09.926Z,100655.66
2022-09-14T23:54:11.969Z,100661.44
2022-09-14T23:58:13.648Z,100657.22
